createdAt,value
2023-03-10T00:00:06.215Z,2.20
2023-03-10T00:05:11.325Z,1.52
2023-03-10T00:10:15.670Z,1.58
2023-03-10T00:15:18.916Z,1.30
2023-03-10T00:20:23.654Z,2.92
2023-03-10T00:25:26.662Z,1.05
2023-03-10T00:30:32.874Z,2.78
2023-03-10T00:35:36.856Z,1.73
2023-03-10T00:40:40.260Z,1.52
2023-03-10T00:45:43.218Z,1.25
2023-03-10T00:50:46.688Z,2.33
2023-03-10T00:56:03.320Z,1.38
2023-03-10T01:01:15.323Z,2.45
2023-03-10T01:06:18.342Z,1.08
2023-03-10T01:11:25.025Z,2.25
2023-03-10T01:16:29.824Z,2.83
2023-03-10T01:21:35.724Z,1.02
2023-03-10T01:26:38.783Z,2.25
2023-03-10T01:31:42.446Z,2.97
2023-03-10T01:36:46.107Z,2.38
2023-03-10T01:41:50.065Z,3.28
2023-03-10T01:46:55.568Z,2.08
2023-03-10T01:52:16.876Z,3.45
2023-03-10T01:57:25.119Z,2.42
2023-03-10T02:02:31.724Z,2.47
2023-03-10T02:07:40.362Z,3.42
2023-03-10T02:12:44.803Z,2.33
2023-03-10T02:17:50.263Z,2.80
2023-03-10T02:22:54.458Z,2.13
2023-03-10T02:27:58.889Z,2.75
2023-03-10T02:33:17.123Z,3.22
2023-03-10T02:38:21.171Z,3.42
2023-03-10T02:43:28.476Z,2.40
2023-03-10T02:53:50.405Z,2.00
2023-03-10T02:58:54.039Z,2.78
2023-03-10T03:03:57.806Z,3.45
2023-03-10T03:09:02.503Z,3.83
2023-03-10T03:14:08.100Z,2.63
2023-03-10T03:19:12.092Z,2.88
2023-03-10T03:24:23.875Z,1.75
2023-03-10T03:29:27.172Z,3.08
2023-03-10T03:34:31.055Z,4.85
2023-03-10T03:39:38.217Z,3.35
2023-03-10T03:44:44.320Z,2.00
2023-03-10T03:49:47.988Z,1.95
2023-03-10T03:54:51.918Z,2.85
2023-03-10T03:59:55.190Z,4.35
2023-03-10T04:04:59.496Z,2.38
2023-03-10T04:10:02.639Z,2.45
2023-03-10T04:15:07.815Z,2.60
2023-03-10T04:20:14.449Z,2.83
2023-03-10T04:25:21.304Z,4.90
2023-03-10T04:30:29.582Z,3.17
2023-03-10T04:35:40.891Z,4.43
2023-03-10T04:40:45.313Z,4.57
2023-03-10T04:45:49.459Z,3.63
2023-03-10T04:51:06.343Z,4.55
2023-03-10T04:56:15.125Z,3.92
2023-03-10T05:01:19.450Z,6.20
2023-03-10T05:06:30.930Z,5.88
2023-03-10T05:11:45.198Z,2.78
2023-03-10T05:16:49.685Z,2.65
2023-03-10T05:21:54.214Z,1.95
2023-03-10T05:26:57.842Z,2.03
2023-03-10T05:32:01.896Z,2.63
2023-03-10T05:37:10.483Z,1.35
2023-03-10T05:42:13.645Z,2.20
2023-03-10T05:47:19.365Z,2.70
2023-03-10T05:52:23.672Z,4.20
2023-03-10T05:57:27.592Z,2.83
2023-03-10T06:02:30.656Z,2.50
2023-03-10T06:12:39.189Z,5.20
2023-03-10T06:21:41.064Z,4.38
2023-03-10T06:26:44.879Z,3.67
2023-03-10T06:31:48.161Z,4.70
2023-03-10T06:36:51.217Z,4.47
2023-03-10T06:41:54.680Z,4.20
2023-03-10T06:46:57.857Z,2.75
2023-03-10T06:52:01.324Z,2.88
2023-03-10T06:57:05.853Z,3.60
2023-03-10T07:02:12.304Z,5.25
2023-03-10T07:07:15.915Z,5.30
2023-03-10T07:12:19.325Z,6.88
2023-03-10T07:17:23.004Z,4.40
2023-03-10T07:22:26.118Z,6.60
2023-03-10T07:27:29.152Z,8.45
2023-03-10T07:32:32.940Z,6.43
2023-03-10T07:37:40.833Z,4.65
2023-03-10T07:42:44.818Z,4.57
2023-03-10T07:47:48.271Z,5.63
2023-03-10T07:52:51.495Z,2.15
2023-03-10T07:57:57.106Z,6.60
2023-03-10T08:03:00.215Z,5.35
2023-03-10T08:08:04.096Z,2.95
2023-03-10T08:13:07.672Z,3.03
2023-03-10T08:18:10.865Z,2.35
2023-03-10T08:23:14.569Z,3.55
2023-03-10T08:28:17.950Z,3.80
2023-03-10T08:33:22.283Z,4.25
2023-03-10T08:38:25.467Z,4.00
2023-03-10T08:43:29.130Z,6.20
2023-03-10T08:48:32.288Z,3.03
2023-03-10T08:53:37.571Z,4.93
2023-03-10T08:58:40.876Z,6.65
2023-03-10T09:03:46.392Z,8.32
2023-03-10T09:08:51.043Z,4.95
2023-03-10T09:13:55.190Z,5.57
2023-03-10T09:19:00.282Z,4.13
2023-03-10T09:24:04.016Z,4.63
2023-03-10T09:29:08.314Z,7.00
2023-03-10T09:34:12.468Z,4.95
2023-03-10T09:39:15.579Z,6.25
2023-03-10T09:44:50.865Z,8.57
2023-03-10T09:50:44.530Z,5.57
2023-03-10T09:55:49.118Z,6.22
2023-03-10T10:00:52.301Z,5.65
2023-03-10T10:05:57.432Z,4.57
2023-03-10T10:11:01.900Z,5.30
2023-03-10T10:16:33.537Z,5.50
2023-03-10T10:21:59.298Z,7.55
2023-03-10T10:27:03.054Z,4.50
2023-03-10T10:32:14.581Z,4.20
2023-03-10T10:37:34.002Z,4.97
2023-03-10T10:42:38.684Z,4.45
2023-03-10T10:47:52.459Z,4.70
2023-03-10T10:53:37.365Z,5.45
2023-03-10T10:58:42.678Z,5.90
2023-03-10T11:03:50.487Z,7.27
2023-03-10T11:09:12.512Z,3.72
2023-03-10T11:14:52.731Z,5.45
2023-03-10T11:20:17.230Z,7.10
2023-03-10T11:25:42.927Z,4.40
2023-03-10T11:31:00.923Z,3.92
2023-03-10T11:36:22.208Z,3.90
2023-03-10T11:41:31.293Z,7.38
2023-03-10T11:46:58.791Z,3.10
2023-03-10T11:52:07.775Z,5.78
2023-03-10T11:57:18.454Z,5.72
2023-03-10T12:02:34.453Z,9.00
2023-03-10T12:07:44.790Z,8.80
2023-03-10T12:12:53.918Z,5.63
2023-03-10T12:17:57.581Z,4.75
2023-03-10T12:23:27.049Z,5.10
2023-03-10T12:28:30.597Z,8.35
2023-03-10T12:33:34.720Z,7.10
2023-03-10T12:38:50.283Z,7.90
2023-03-10T12:43:57.779Z,5.25
2023-03-10T12:49:11.955Z,6.05
2023-03-10T12:54:21.460Z,3.65
2023-03-10T12:59:50.965Z,4.57
2023-03-10T13:05:02.346Z,7.70
2023-03-10T13:10:07.775Z,4.90
2023-03-10T13:15:24.634Z,3.42
2023-03-10T13:20:28.442Z,4.97
2023-03-10T13:25:36.915Z,6.30
2023-03-10T13:30:40.551Z,8.43
2023-03-10T13:35:44.685Z,9.32
2023-03-10T13:40:50.472Z,9.07
2023-03-10T13:45:56.208Z,6.43
2023-03-10T13:51:19.989Z,6.28
2023-03-10T13:56:38.843Z,6.95
2023-03-10T14:01:48.758Z,4.55
2023-03-10T14:07:08.661Z,3.42
2023-03-10T14:12:13.846Z,9.75
2023-03-10T14:17:35.447Z,6.78
2023-03-10T14:22:43.720Z,6.15
2023-03-10T14:27:56.309Z,5.15
2023-03-10T14:33:02.046Z,3.28
2023-03-10T14:43:13.256Z,6.90
2023-03-10T14:48:19.169Z,6.80
2023-03-10T14:53:26.290Z,9.35
2023-03-10T14:58:37.412Z,9.18
2023-03-10T15:03:41.531Z,5.90
2023-03-10T15:08:45.250Z,7.95
2023-03-10T15:13:48.802Z,7.22
2023-03-10T15:18:53.438Z,7.15
2023-03-10T15:23:57.091Z,6.25
2023-03-10T15:29:00.656Z,9.32
2023-03-10T15:34:03.686Z,6.63
2023-03-10T15:39:06.928Z,6.57
2023-03-10T15:44:10.397Z,10.43
2023-03-10T15:49:13.549Z,3.88
2023-03-10T15:54:17.169Z,5.68
2023-03-10T15:59:20.824Z,5.00
2023-03-10T16:04:24.024Z,5.88
2023-03-10T16:09:27.659Z,8.35
2023-03-10T16:14:31.299Z,5.47
2023-03-10T16:19:34.922Z,7.75
2023-03-10T16:24:38.908Z,8.00
2023-03-10T16:29:42.384Z,8.30
2023-03-10T16:34:45.333Z,6.30
2023-03-10T16:39:48.740Z,8.48
2023-03-10T16:44:56.790Z,9.82
2023-03-10T16:50:00.053Z,7.07
2023-03-10T16:55:05.422Z,7.80
2023-03-10T17:00:10.511Z,13.25
2023-03-10T17:05:15.473Z,11.27
2023-03-10T17:10:19.158Z,9.35
2023-03-10T17:15:22.164Z,14.23
2023-03-10T17:20:26.836Z,11.98
2023-03-10T17:25:30.161Z,19.55
2023-03-10T17:30:33.656Z,15.70
2023-03-10T17:35:38.836Z,19.33
2023-03-10T17:40:45.747Z,19.05
2023-03-10T17:45:57.181Z,21.77
2023-03-10T17:51:00.815Z,16.48
2023-03-10T17:56:06.043Z,23.40
2023-03-10T18:01:12.379Z,22.08
2023-03-10T18:06:21.404Z,20.87
2023-03-10T18:11:26.080Z,13.57
2023-03-10T18:16:31.698Z,16.63
2023-03-10T18:21:35.180Z,14.70
2023-03-10T18:26:38.634Z,16.23
2023-03-10T18:31:42.856Z,23.25
2023-03-10T18:36:46.657Z,21.90
2023-03-10T18:47:23.322Z,19.95
2023-03-10T19:08:47.316Z,21.52
2023-03-10T19:13:54.919Z,15.82
2023-03-10T19:19:01.177Z,13.63
2023-03-10T19:24:05.973Z,13.35
2023-03-10T19:29:10.465Z,12.75
2023-03-10T19:34:14.584Z,16.02
2023-03-10T19:39:19.336Z,10.52
2023-03-10T19:44:23.053Z,10.93
2023-03-10T19:49:27.159Z,18.88
2023-03-10T19:54:30.387Z,13.38
2023-03-10T19:59:33.924Z,17.08
2023-03-10T20:04:39.121Z,13.25
2023-03-10T20:09:42.606Z,13.70
2023-03-10T20:14:46.160Z,18.95
2023-03-10T20:19:57.655Z,15.23
2023-03-10T20:25:08.150Z,12.30
2023-03-10T20:30:18.227Z,20.17
2023-03-10T20:35:23.022Z,15.35
2023-03-10T20:40:27.225Z,18.02
2023-03-10T20:45:30.294Z,12.25
2023-03-10T20:50:35.138Z,19.63
2023-03-10T20:55:38.599Z,16.20
2023-03-10T21:00:45.840Z,12.25
2023-03-10T21:10:52.943Z,9.68
2023-03-10T21:15:56.596Z,15.10
2023-03-10T21:20:59.682Z,15.43
2023-03-10T21:26:09.441Z,16.17
2023-03-10T21:31:13.121Z,8.13
2023-03-10T21:36:22.549Z,10.25
2023-03-10T21:41:28.557Z,19.65
2023-03-10T21:46:32.267Z,14.45
2023-03-10T21:51:36.149Z,17.10
2023-03-10T21:56:39.434Z,17.90
2023-03-10T22:01:42.927Z,15.65
2023-03-10T22:06:46.508Z,10.85
2023-03-10T22:11:49.981Z,6.80
2023-03-10T22:16:53.545Z,14.20
2023-03-10T22:21:57.602Z,14.30
2023-03-10T22:27:01.088Z,6.13
2023-03-10T22:32:04.919Z,14.98
2023-03-10T22:37:08.033Z,9.50
2023-03-10T22:42:13.229Z,9.05
2023-03-10T22:47:18.103Z,13.18
2023-03-10T22:52:22.047Z,10.98
2023-03-10T22:57:25.404Z,11.27
2023-03-10T23:02:28.940Z,6.60
2023-03-10T23:07:32.442Z,6.28
2023-03-10T23:12:35.656Z,11.80
2023-03-10T23:17:38.713Z,8.32
2023-03-10T23:22:43.846Z,11.65
2023-03-10T23:27:48.192Z,7.43
2023-03-10T23:32:51.833Z,10.25
2023-03-10T23:37:55.862Z,10.32
2023-03-10T23:43:01.232Z,10.80
2023-03-10T23:48:07.950Z,10.02
2023-03-10T23:53:12.516Z,8.43
2023-03-10T23:58:18.215Z,8.85
